Lulu Pass Weather Station

This weather station provides temperature, relative humidity (RH), wind speed, gust or max wind speed, and wind direction at 10014ft near Lulu Pass at the head of Fisher Creek. This data can be used with temperature and precipitation data from the Fisher Creek SNOTEL site.

This weather station was purchased by the Friends of the Avalanche Center.

If the data has not been updated recently you can view it directly on datagarrison.com

Elevation
10014ft
Jump to table bottom
Date Time Temperature
deg F
RH, % Wind Speed Wind Gust Wind Direction
01/23/19 09:07 4.2 92 8 17 W - 257
01/23/19 08:07 3.1 92 9 19 W - 263
01/23/19 07:07 2.8 92 8 21 W - 271
01/23/19 06:07 3.2 92 10 24 W - 277
01/23/19 05:07 3.2 92 8 18 W - 261
01/23/19 04:07 3.1 92 7 18 W - 254
01/23/19 03:07 3.0 92 7 18 W - 261
01/23/19 02:07 2.6 91 8 18 W - 250
01/23/19 01:07 1.7 91 7 15 SW - 239
01/23/19 00:07 1.3 91 7 15 SW - 233
01/22/19 23:07 1.3 91 7 18 SW - 247
01/22/19 22:07 1.7 91 6 14 W - 253
01/22/19 21:07 2.8 92 8 15 W - 285
01/22/19 20:07 3.6 92 8 15 W - 286
01/22/19 19:07 4.3 92 12 21 W - 289
01/22/19 18:07 4.6 92 10 19 W - 271
01/22/19 17:07 4.9 93 12 24 W - 292
01/22/19 16:07 5.7 93 12 26 NW - 298
01/22/19 15:07 6.2 93 17 24 NW - 316
01/22/19 14:07 6.1 93 17 24 NW - 320
01/22/19 13:07 6.7 93 10 15 NW - 312
01/22/19 12:07 6.2 92 10 18 NW - 327
01/22/19 11:07 3.4 92 8 11 NW - 326
01/22/19 10:07 3.9 92 7 10 NW - 327
01/22/19 09:07 1.8 91 9 13 NW - 319
01/22/19 08:07 -1.5 90 6 11 NW - 306
01/22/19 07:07 0.3 91 7 11 NW - 306
01/22/19 06:07 1.0 91 10 15 NW - 317
01/22/19 05:07 1.3 91 8 14 NW - 324
01/22/19 04:07 1.2 91 9 14 NW - 329
01/22/19 03:07 2.0 91 16 24 N - 345
01/22/19 02:07 0.9 91 8 16 N - 345
01/22/19 01:07 1.5 91 8 13 N - 341
01/22/19 00:07 2.2 92 10 14 NW - 329
01/21/19 23:07 3.2 92 11 16 NW - 324
01/21/19 22:07 4.3 92 15 23 NW - 326
01/21/19 21:07 4.7 92 14 18 NW - 326
01/21/19 20:07 5.0 93 16 21 NW - 324
01/21/19 19:07 5.2 93 20 27 NW - 324
01/21/19 18:07 5.9 93 20 27 NW - 327
01/21/19 17:07 7.1 93 23 31 NW - 330
01/21/19 16:07 8.1 93 28 41 N - 338
01/21/19 15:07 8.8 94 31 44 N - 340
01/21/19 14:07 10.0 94 32 44 N - 343
01/21/19 13:07 10.0 94 31 48 N - 338
01/21/19 12:07 12.2 95 27 37 N - 340
01/21/19 11:07 12.4 95 24 35 NW - 337
01/21/19 10:07 12.5 95 26 34 N - 344
01/21/19 09:07 13.3 96 22 30 N - 338
01/21/19 08:07 14.8 96 12 21 NW - 333